Time;durP1;ratioP1;P1;durP2;ratioP2;P2;SDS_P1;SDS_P2;PMS_P1;PMS_P2;Temp;Humidity;BMP_temperature;BMP_pressure;BME280_temperature;BME280_humidity;BME280_pressure;Samples;Min_cycle;Max_cycle;Signal;HPM_P1;HPM_P2
2023/12/18 00:01:00;;;;;;;;;;;;;;;8.20;100.00;100061.09;68017;1275;1016399;-74
2023/12/18 00:04:22;;;;;;;;;;;;;;;8.19;100.00;100068.80;67979;1275;1016455;-75
2023/12/18 00:07:26;;;;;;;;;;;;;;;8.10;100.00;100063.15;68032;1275;1016185;-74
2023/12/18 00:10:31;;;;;;;;;;;;;;;7.99;100.00;100060.38;67997;1275;1016442;-74
2023/12/18 00:13:33;;;;;;;;;;;;;;;8.04;100.00;100060.73;68014;1275;1016422;-75
2023/12/18 00:16:36;;;;;;;;;;;;;;;8.04;100.00;100061.42;68005;1275;1017035;-75
2023/12/18 00:19:38;;;;;;;;;;;;;;;7.97;100.00;100059.20;68000;1275;1016451;-75
2023/12/18 00:22:41;;;;;;;;;;;;;;;8.13;100.00;100060.27;68054;1275;1018195;-75
2023/12/18 00:25:44;;;;;;;;;;;;;;;8.23;100.00;100055.45;68040;1275;1016563;-74
2023/12/18 00:28:46;;;;;;;;;;;;;;;8.20;100.00;100046.30;68014;1275;1016463;-75
2023/12/18 00:31:49;;;;;;;;;;;;;;;8.19;100.00;100053.98;67981;1275;1016521;-73
2023/12/18 00:34:51;;;;;;;;;;;;;;;8.38;100.00;100057.21;68031;1275;1016450;-75
2023/12/18 00:37:54;;;;;;;;;;;;;;;8.53;100.00;100045.80;68032;1275;1016472;-75
2023/12/18 00:40:57;;;;;;;;;;;;;;;8.47;100.00;100039.66;67991;1275;1016259;-74
2023/12/18 00:43:59;;;;;;;;;;;;;;;8.49;100.00;100038.73;67902;1275;1019783;-75
2023/12/18 00:47:03;;;;;;;;;;;;;;;8.54;100.00;100034.93;68023;1275;1017187;-74
2023/12/18 00:50:07;;;;;;;;;;;;;;;8.44;100.00;100035.92;67987;1275;1016382;-74
2023/12/18 00:53:10;;;;;;;;;;;;;;;8.52;100.00;100028.90;68080;1275;1016521;-75
2023/12/18 00:56:13;;;;;;;;;;;;;;;8.62;100.00;100027.17;68027;1275;1016433;-74
2023/12/18 00:59:17;;;;;;;;;;;;;;;8.61;100.00;100034.16;67988;1275;1016393;-75
2023/12/18 01:02:20;;;;;;;;;;;;;;;8.54;100.00;100028.48;68020;1275;1016298;-74
2023/12/18 01:05:23;;;;;;;;;;;;;;;8.60;100.00;100033.68;68019;1275;1016390;-75
2023/12/18 01:08:25;;;;;;;;;;;;;;;8.59;100.00;100032.34;67967;1275;1016489;-75
2023/12/18 01:11:28;;;;;;;;;;;;;;;8.66;100.00;100025.29;67987;1275;1016447;-74
2023/12/18 01:14:30;;;;;;;;;;;;;;;8.72;100.00;100017.92;68051;1275;1016689;-75
2023/12/18 01:17:33;;;;;;;;;;;;;;;8.66;100.00;100019.70;67969;1275;1016236;-75
2023/12/18 01:20:36;;;;;;;;;;;;;;;8.59;100.00;100014.02;68029;1275;1016373;-74
2023/12/18 01:23:38;;;;;;;;;;;;;;;8.62;100.00;100013.23;68014;1275;1016296;-73
2023/12/18 01:26:41;;;;;;;;;;;;;;;8.68;100.00;100008.80;68036;1275;1016365;-74
2023/12/18 01:29:44;;;;;;;;;;;;;;;8.72;100.00;100007.48;67989;1275;1017338;-75
2023/12/18 01:32:47;;;;;;;;;;;;;;;8.64;100.00;100003.73;68044;1275;1016166;-74
2023/12/18 01:35:50;;;;;;;;;;;;;;;8.48;100.00;100008.45;67916;1275;1015935;-75
2023/12/18 01:38:53;;;;;;;;;;;;;;;8.42;100.00;100005.31;68045;1275;1016253;-74
2023/12/18 01:41:56;;;;;;;;;;;;;;;8.52;100.00;100010.77;67988;1275;1016607;-75
2023/12/18 01:44:58;;;;;;;;;;;;;;;8.53;100.00;100009.34;68012;1275;1016561;-75
2023/12/18 01:48:01;;;;;;;;;;;;;;;8.71;100.00;100011.52;68058;1275;1016375;-74
2023/12/18 01:51:04;;;;;;;;;;;;;;;8.73;100.00;100010.23;68030;1275;1017206;-75
2023/12/18 01:54:06;;;;;;;;;;;;;;;8.75;100.00;100007.73;68037;1275;1017358;-75
2023/12/18 01:57:10;;;;;;;;;;;;;;;8.69;100.00;100005.65;68044;1275;1018259;-75
2023/12/18 02:00:13;;;;;;;;;;;;;;;8.68;100.00;100005.70;68019;1275;1016375;-75
2023/12/18 02:03:16;;;;;;;;;;;;;;;8.79;100.00;100002.35;68048;1275;1016496;-74
2023/12/18 02:06:21;;;;;;;;;;;;;;;8.74;100.00;99997.98;67982;1275;1016486;-74
2023/12/18 02:09:24;;;;;;;;;;;;;;;8.70;100.00;99994.97;68014;1275;1016086;-74
2023/12/18 02:12:26;;;;;;;;;;;;;;;8.61;100.00;99994.95;67980;1275;1017479;-74
2023/12/18 02:15:29;;;;;;;;;;;;;;;8.48;100.00;99998.55;68076;1275;1016406;-75
2023/12/18 02:18:31;;;;;;;;;;;;;;;8.27;100.00;100000.56;68026;1275;1016189;-74
2023/12/18 02:21:34;;;;;;;;;;;;;;;8.38;100.00;100004.95;68000;1275;1016515;-74
2023/12/18 02:24:37;;;;;;;;;;;;;;;8.40;100.00;99998.77;68022;1275;1016104;-74
2023/12/18 02:27:39;;;;;;;;;;;;;;;8.47;100.00;100000.64;68071;1275;1016078;-75
2023/12/18 02:30:42;;;;;;;;;;;;;;;8.32;100.00;99998.52;68061;1275;1016440;-74
2023/12/18 02:33:48;;;;;;;;;;;;;;;8.37;100.00;99994.00;67969;1275;1016263;-74
2023/12/18 02:36:51;;;;;;;;;;;;;;;8.38;100.00;99987.84;67988;1275;1016484;-74
2023/12/18 02:39:54;;;;;;;;;;;;;;;8.39;100.00;99981.38;68022;1275;1016371;-75
2023/12/18 02:42:57;;;;;;;;;;;;;;;8.40;100.00;99986.05;68002;1275;1016409;-74
2023/12/18 02:46:04;;;;;;;;;;;;;;;8.39;100.00;99988.52;68042;1275;1016268;-74
2023/12/18 02:49:06;;;;;;;;;;;;;;;8.35;100.00;99982.02;68060;1275;1016214;-74
2023/12/18 02:52:09;;;;;;;;;;;;;;;8.33;100.00;99987.31;68000;1275;1016839;-74
2023/12/18 02:55:13;;;;;;;;;;;;;;;8.24;100.00;99984.46;68021;1275;1015655;-75
2023/12/18 02:58:15;;;;;;;;;;;;;;;8.20;100.00;99981.30;68033;1275;1016055;-75
2023/12/18 03:01:18;;;;;;;;;;;;;;;8.13;100.00;99987.95;68005;1275;1016488;-74
2023/12/18 03:04:21;;;;;;;;;;;;;;;8.07;100.00;99990.60;68030;1275;1016406;-75
2023/12/18 03:07:23;;;;;;;;;;;;;;;7.96;100.00;99987.13;68013;1275;1016883;-75
2023/12/18 03:10:26;;;;;;;;;;;;;;;7.88;100.00;99983.89;67964;1275;1016344;-75
2023/12/18 03:13:29;;;;;;;;;;;;;;;7.84;100.00;99983.83;68053;1275;1016340;-74
2023/12/18 03:16:31;;;;;;;;;;;;;;;7.59;100.00;99980.26;68020;1275;1016430;-75
2023/12/18 03:19:34;;;;;;;;;;;;;;;7.48;100.00;99979.18;67998;1275;1018535;-75
2023/12/18 03:22:36;;;;;;;;;;;;;;;7.46;100.00;99976.82;68052;1275;1016451;-73
2023/12/18 03:25:39;;;;;;;;;;;;;;;7.37;100.00;99970.95;68009;1275;1015993;-73
2023/12/18 03:28:42;;;;;;;;;;;;;;;7.32;100.00;99968.16;67940;1275;1016402;-74
2023/12/18 03:31:44;;;;;;;;;;;;;;;7.15;100.00;99968.64;68014;1275;1016387;-74
2023/12/18 03:34:47;;;;;;;;;;;;;;;7.01;100.00;99957.56;68018;1275;1017430;-74
2023/12/18 03:37:49;;;;;;;;;;;;;;;6.98;100.00;99955.04;67973;1275;1016382;-74
2023/12/18 03:40:52;;;;;;;;;;;;;;;7.00;100.00;99950.29;67993;1275;1016275;-73
2023/12/18 03:43:55;;;;;;;;;;;;;;;7.00;100.00;99944.89;67996;1275;1016482;-75
2023/12/18 03:46:58;;;;;;;;;;;;;;;7.02;100.00;99944.68;68029;1275;1016302;-74
2023/12/18 03:50:00;;;;;;;;;;;;;;;7.01;100.00;99948.52;68010;1275;1016424;-74
2023/12/18 03:53:03;;;;;;;;;;;;;;;7.05;100.00;99944.08;68046;1275;1016459;-74
2023/12/18 03:56:06;;;;;;;;;;;;;;;7.23;100.00;99943.88;68001;1275;1016433;-75
2023/12/18 03:59:08;;;;;;;;;;;;;;;7.36;100.00;99946.13;68016;1275;1016390;-74
2023/12/18 04:02:11;;;;;;;;;;;;;;;7.46;100.00;99943.90;68019;1275;1016339;-74
2023/12/18 04:05:13;;;;;;;;;;;;;;;7.38;100.00;99947.62;68049;1275;1016499;-74
2023/12/18 04:08:16;;;;;;;;;;;;;;;7.59;100.00;99946.46;68005;1275;1016479;-74
2023/12/18 04:11:21;;;;;;;;;;;;;;;7.63;100.00;99948.10;67998;1275;1016397;-74
2023/12/18 04:14:23;;;;;;;;;;;;;;;7.66;100.00;99949.59;68011;1275;1018079;-74
2023/12/18 04:17:26;;;;;;;;;;;;;;;7.64;100.00;99953.79;68009;1275;1016484;-74
2023/12/18 04:20:29;;;;;;;;;;;;;;;7.63;100.00;99955.05;68012;1275;1016303;-75
2023/12/18 04:23:31;;;;;;;;;;;;;;;7.58;100.00;99951.90;68046;1275;1016385;-75
2023/12/18 04:26:34;;;;;;;;;;;;;;;7.50;100.00;99951.28;68032;1275;1016550;-75
2023/12/18 04:29:37;;;;;;;;;;;;;;;7.48;100.00;99953.77;67999;1275;1016549;-75
2023/12/18 04:32:40;;;;;;;;;;;;;;;7.50;100.00;99954.74;67995;1275;1017223;-74
2023/12/18 04:35:43;;;;;;;;;;;;;;;7.61;100.00;99953.37;68005;1275;1016880;-74
2023/12/18 04:38:46;;;;;;;;;;;;;;;7.58;100.00;99944.93;68034;1275;1016333;-74
2023/12/18 04:41:51;;;;;;;;;;;;;;;7.54;100.00;99945.74;68040;1275;1016381;-74
2023/12/18 04:44:54;;;;;;;;;;;;;;;7.66;100.00;99946.95;68049;1275;1016427;-75
2023/12/18 04:47:57;;;;;;;;;;;;;;;7.73;100.00;99947.44;68005;1275;1015846;-74
2023/12/18 04:50:59;;;;;;;;;;;;;;;7.69;100.00;99949.30;68011;1275;1016202;-75
2023/12/18 04:54:02;;;;;;;;;;;;;;;7.58;100.00;99952.58;68064;1275;1015986;-75
2023/12/18 04:57:04;;;;;;;;;;;;;;;7.69;100.00;99953.11;68055;1275;1016401;-75
2023/12/18 05:00:07;;;;;;;;;;;;;;;7.85;100.00;99951.77;68012;1275;1016414;-75
2023/12/18 05:03:10;;;;;;;;;;;;;;;7.92;100.00;99961.63;68047;1275;1016660;-75
2023/12/18 05:06:12;;;;;;;;;;;;;;;7.84;100.00;99971.45;68042;1275;1016471;-74
2023/12/18 05:09:15;;;;;;;;;;;;;;;7.92;100.00;99976.63;68020;1275;1016445;-74
2023/12/18 05:12:18;;;;;;;;;;;;;;;7.96;100.00;99978.73;68045;1275;1016570;-76
2023/12/18 05:15:20;;;;;;;;;;;;;;;7.99;100.00;99979.52;68047;1275;1016431;-75
2023/12/18 05:18:23;;;;;;;;;;;;;;;7.96;100.00;99980.15;68006;1275;1015994;-74
2023/12/18 05:21:25;;;;;;;;;;;;;;;7.97;100.00;99966.19;68035;1275;1016471;-74
2023/12/18 05:24:28;;;;;;;;;;;;;;;8.03;100.00;99969.11;68076;1275;1016437;-74
2023/12/18 05:27:31;;;;;;;;;;;;;;;8.07;100.00;99970.73;65383;1275;5388730;-74
2023/12/18 05:30:41;;;;;;;;;;;;;;;7.97;100.00;99962.70;67931;1275;1016364;-74
2023/12/18 05:33:44;;;;;;;;;;;;;;;8.04;100.00;99964.58;68071;1275;1015804;-75
2023/12/18 05:36:47;;;;;;;;;;;;;;;8.03;100.00;99960.05;68028;1275;1016455;-74
2023/12/18 05:39:49;;;;;;;;;;;;;;;8.05;100.00;99958.42;68024;1275;1018041;-75
2023/12/18 05:42:52;;;;;;;;;;;;;;;8.04;100.00;99968.73;68051;1275;1019230;-75
2023/12/18 05:45:54;;;;;;;;;;;;;;;8.06;100.00;99969.22;68030;1275;1016362;-74
2023/12/18 05:48:57;;;;;;;;;;;;;;;8.10;100.00;99970.62;67983;1275;1016330;-75
2023/12/18 05:51:59;;;;;;;;;;;;;;;8.25;100.00;99973.30;67983;1275;1016737;-75
2023/12/18 05:55:02;;;;;;;;;;;;;;;8.32;100.00;99975.67;68018;1275;1016410;-75
2023/12/18 05:58:05;;;;;;;;;;;;;;;8.39;100.00;99970.38;67987;1275;1016441;-74
2023/12/18 06:01:08;;;;;;;;;;;;;;;8.43;100.00;99971.81;68000;1275;1016219;-74
2023/12/18 06:04:11;;;;;;;;;;;;;;;8.42;100.00;99976.56;67982;1275;1016201;-75
2023/12/18 06:07:14;;;;;;;;;;;;;;;8.43;100.00;99977.93;68048;1275;1017135;-74
2023/12/18 06:10:16;;;;;;;;;;;;;;;8.50;100.00;99983.13;68032;1275;1016581;-73
2023/12/18 06:13:19;;;;;;;;;;;;;;;8.52;100.00;99986.88;68023;1275;1016338;-74
2023/12/18 06:16:22;;;;;;;;;;;;;;;8.49;100.00;99989.95;68023;1275;1016100;-74
2023/12/18 06:19:24;;;;;;;;;;;;;;;8.55;100.00;99982.63;67994;1275;1017143;-73
2023/12/18 06:22:27;;;;;;;;;;;;;;;8.56;100.00;99988.14;68046;1275;1016660;-74
2023/12/18 06:25:30;;;;;;;;;;;;;;;8.52;100.00;99984.64;68061;1275;1016397;-74
2023/12/18 06:28:32;;;;;;;;;;;;;;;8.53;100.00;99989.66;67980;1275;1016065;-74
2023/12/18 06:31:35;;;;;;;;;;;;;;;8.55;100.00;99992.54;68017;1275;1016288;-74
2023/12/18 06:34:37;;;;;;;;;;;;;;;8.61;100.00;99988.13;68019;1275;1015976;-74
2023/12/18 06:37:42;;;;;;;;;;;;;;;8.47;100.00;99973.95;68056;1275;1016477;-74
2023/12/18 06:40:45;;;;;;;;;;;;;;;8.48;100.00;99969.92;68015;1275;1016752;-74
2023/12/18 06:44:08;;;;;;;;;;;;;;;8.67;100.00;99964.92;68024;1275;1016433;-75
2023/12/18 06:47:10;;;;;;;;;;;;;;;8.63;100.00;99971.14;68021;1275;1016044;-75
2023/12/18 06:50:13;;;;;;;;;;;;;;;8.54;100.00;99979.49;67991;1275;1016433;-74
2023/12/18 06:53:16;;;;;;;;;;;;;;;8.59;100.00;99981.43;68072;1275;1018566;-74
2023/12/18 06:56:19;;;;;;;;;;;;;;;8.64;100.00;99983.70;67964;1275;1016171;-74
2023/12/18 06:59:24;;;;;;;;;;;;;;;8.61;100.00;99982.38;68018;1275;1020614;-74
2023/12/18 07:02:26;;;;;;;;;;;;;;;8.79;100.00;99982.29;68021;1275;1016415;-75
2023/12/18 07:05:32;;;;;;;;;;;;;;;8.73;100.00;99983.38;67938;1275;1016358;-75
2023/12/18 07:08:34;;;;;;;;;;;;;;;8.60;100.00;99981.20;68027;1275;1018583;-74
2023/12/18 07:11:37;;;;;;;;;;;;;;;8.63;100.00;99978.67;68005;1275;1016198;-74
2023/12/18 07:14:40;;;;;;;;;;;;;;;8.62;100.00;99981.50;68024;1275;1016249;-74
2023/12/18 07:17:42;;;;;;;;;;;;;;;8.70;100.00;99981.73;68023;1275;1016067;-74
2023/12/18 07:20:45;;;;;;;;;;;;;;;8.70;100.00;99994.30;67933;1275;1017459;-74
2023/12/18 07:23:47;;;;;;;;;;;;;;;8.77;100.00;99989.52;68017;1275;1016148;-74
2023/12/18 07:26:50;;;;;;;;;;;;;;;8.81;100.00;99989.37;68049;1275;1016458;-74
2023/12/18 07:29:52;;;;;;;;;;;;;;;8.82;100.00;99983.08;68021;1275;1017104;-75
2023/12/18 07:32:55;;;;;;;;;;;;;;;8.92;100.00;99985.67;67996;1275;1018717;-74
2023/12/18 07:35:58;;;;;;;;;;;;;;;8.92;100.00;99989.86;68062;1275;1015855;-75
2023/12/18 07:39:00;;;;;;;;;;;;;;;8.98;100.00;99990.35;68053;1275;1016322;-74
2023/12/18 07:42:03;;;;;;;;;;;;;;;9.22;100.00;99992.11;68002;1275;1016517;-74
2023/12/18 07:45:05;;;;;;;;;;;;;;;9.36;100.00;99988.78;67981;1275;1016243;-74
2023/12/18 07:48:08;;;;;;;;;;;;;;;9.43;100.00;99996.77;68052;1275;1016969;-74
2023/12/18 07:51:11;;;;;;;;;;;;;;;9.49;100.00;100004.89;68077;1275;1016210;-72
2023/12/18 07:54:14;;;;;;;;;;;;;;;9.57;100.00;100013.86;67986;1275;1016212;-75
2023/12/18 07:57:17;;;;;;;;;;;;;;;9.76;100.00;100007.00;68100;1275;1016002;-74
2023/12/18 08:00:19;;;;;;;;;;;;;;;9.85;100.00;100007.20;67987;1275;1016161;-74
2023/12/18 08:03:22;;;;;;;;;;;;;;;9.99;100.00;100011.19;68004;1275;1016896;-74
2023/12/18 08:06:25;;;;;;;;;;;;;;;10.12;100.00;100004.71;68050;1275;1016457;-75
2023/12/18 08:09:27;;;;;;;;;;;;;;;10.18;100.00;100004.32;68031;1275;1016361;-74
2023/12/18 08:12:30;;;;;;;;;;;;;;;10.27;100.00;100000.46;68054;1275;1016366;-74
2023/12/18 08:15:32;;;;;;;;;;;;;;;10.27;100.00;100004.64;68029;1275;1016494;-74
2023/12/18 08:18:35;;;;;;;;;;;;;;;10.35;100.00;99999.98;67993;1275;1016175;-74
2023/12/18 08:21:38;;;;;;;;;;;;;;;10.36;100.00;99990.66;68043;1275;1016435;-74
2023/12/18 08:24:40;;;;;;;;;;;;;;;10.32;100.00;99999.20;67937;1275;1016344;-75
2023/12/18 08:27:43;;;;;;;;;;;;;;;10.38;100.00;99996.52;68032;1275;1017000;-74
2023/12/18 08:30:45;;;;;;;;;;;;;;;10.50;100.00;99989.93;68042;1275;1016283;-75
2023/12/18 08:33:48;;;;;;;;;;;;;;;10.47;100.00;99990.56;68045;1275;1018268;-74
2023/12/18 08:36:50;;;;;;;;;;;;;;;10.57;100.00;99994.52;68016;1275;1016250;-74
2023/12/18 08:39:53;;;;;;;;;;;;;;;10.67;100.00;99991.46;68018;1275;1016549;-74
2023/12/18 08:42:56;;;;;;;;;;;;;;;10.71;100.00;99997.05;68041;1275;1016275;-75
2023/12/18 08:46:02;;;;;;;;;;;;;;;10.68;100.00;100004.20;68030;1275;1016003;-75
2023/12/18 08:49:04;;;;;;;;;;;;;;;10.64;100.00;100003.52;68074;1275;1016188;-74
2023/12/18 08:52:08;;;;;;;;;;;;;;;10.69;100.00;99997.51;67998;1275;1016268;-75
2023/12/18 08:55:10;;;;;;;;;;;;;;;10.67;100.00;99996.71;68043;1275;1016430;-74
2023/12/18 08:58:13;;;;;;;;;;;;;;;10.71;100.00;100006.67;67990;1275;1016164;-74
2023/12/18 09:01:16;;;;;;;;;;;;;;;10.79;100.00;100011.59;68075;1275;1016416;-73
2023/12/18 09:04:18;;;;;;;;;;;;;;;10.82;100.00;100015.85;68073;1275;1016259;-75
2023/12/18 09:07:21;;;;;;;;;;;;;;;10.75;100.00;100010.90;67982;1275;1016420;-74
2023/12/18 09:10:24;;;;;;;;;;;;;;;10.84;100.00;100007.73;68002;1275;1015835;-74
2023/12/18 09:13:28;;;;;;;;;;;;;;;10.88;100.00;100006.67;68034;1275;1016156;-74
2023/12/18 09:16:31;;;;;;;;;;;;;;;10.95;100.00;100005.35;68027;1275;1016226;-74
2023/12/18 09:19:34;;;;;;;;;;;;;;;11.03;100.00;99997.10;68014;1275;1017842;-74
2023/12/18 09:22:37;;;;;;;;;;;;;;;11.17;100.00;99986.86;68001;1275;1016491;-75
2023/12/18 09:25:39;;;;;;;;;;;;;;;11.23;100.00;99987.27;67993;1275;1016193;-75
2023/12/18 09:28:42;;;;;;;;;;;;;;;11.48;100.00;99992.95;68059;1275;1016114;-75
2023/12/18 09:31:45;;;;;;;;;;;;;;;11.56;100.00;99988.55;68040;1275;1016127;-74
2023/12/18 09:34:50;;;;;;;;;;;;;;;11.43;100.00;99972.20;68049;1275;1016174;-74
2023/12/18 09:37:53;;;;;;;;;;;;;;;11.44;100.00;99970.72;68079;1275;1016436;-74
2023/12/18 09:40:55;;;;;;;;;;;;;;;11.49;100.00;99965.63;68022;1275;1017389;-74
2023/12/18 09:43:58;;;;;;;;;;;;;;;11.53;100.00;99963.48;68035;1275;1016441;-74
2023/12/18 09:47:01;;;;;;;;;;;;;;;11.72;100.00;99961.55;68053;1275;1016333;-75
2023/12/18 09:50:05;;;;;;;;;;;;;;;11.82;100.00;99963.55;68026;1275;1016845;-74
2023/12/18 09:53:10;;;;;;;;;;;;;;;11.86;100.00;99954.58;68052;1275;1016323;-74
2023/12/18 09:56:13;;;;;;;;;;;;;;;11.88;100.00;99954.81;68021;1275;1016416;-74
2023/12/18 09:59:16;;;;;;;;;;;;;;;11.83;100.00;99951.20;68010;1275;1016308;-74
2023/12/18 10:02:18;;;;;;;;;;;;;;;11.82;100.00;99947.40;68031;1275;1016544;-74
2023/12/18 10:05:21;;;;;;;;;;;;;;;11.86;100.00;99940.73;67995;1275;1016660;-74
2023/12/18 10:08:23;;;;;;;;;;;;;;;11.96;100.00;99955.35;68015;1275;1018585;-74
2023/12/18 10:11:26;;;;;;;;;;;;;;;12.13;100.00;99948.02;68038;1275;1016568;-75
2023/12/18 10:14:29;;;;;;;;;;;;;;;12.17;100.00;99950.47;68013;1275;1018002;-74
2023/12/18 10:17:33;;;;;;;;;;;;;;;12.14;100.00;99944.98;68009;1275;1016195;-74
2023/12/18 10:20:36;;;;;;;;;;;;;;;12.22;100.00;99933.72;68057;1275;1016464;-75
2023/12/18 10:23:38;;;;;;;;;;;;;;;12.29;100.00;99932.50;68031;1275;1016310;-74
2023/12/18 10:26:41;;;;;;;;;;;;;;;12.33;100.00;99937.95;68014;1275;1017397;-74
2023/12/18 10:29:43;;;;;;;;;;;;;;;12.26;100.00;99942.16;68013;1275;1016160;-74
2023/12/18 10:32:46;;;;;;;;;;;;;;;12.28;100.00;99939.39;68063;1275;1016285;-75
2023/12/18 10:35:49;;;;;;;;;;;;;;;12.42;100.00;99936.04;68020;1275;1015734;-74
2023/12/18 10:38:51;;;;;;;;;;;;;;;12.40;100.00;99936.71;67984;1275;1016465;-74
2023/12/18 10:41:56;;;;;;;;;;;;;;;12.47;100.00;99933.17;68012;1275;1015691;-73
2023/12/18 10:44:59;;;;;;;;;;;;;;;12.44;100.00;99931.91;68034;1275;1016525;-74
2023/12/18 10:48:01;;;;;;;;;;;;;;;12.35;100.00;99936.77;67983;1275;1016879;-74
2023/12/18 10:51:24;;;;;;;;;;;;;;;12.36;100.00;99929.34;67985;1275;1016406;-74
2023/12/18 10:54:27;;;;;;;;;;;;;;;12.44;100.00;99925.61;67922;1275;1016897;-74
2023/12/18 10:57:30;;;;;;;;;;;;;;;12.58;100.00;99922.96;68007;1275;1016305;-74
2023/12/18 11:00:32;;;;;;;;;;;;;;;12.63;100.00;99913.58;68014;1275;1016206;-74
2023/12/18 11:03:36;;;;;;;;;;;;;;;12.47;100.00;99916.85;67974;1275;1016480;-74
2023/12/18 11:06:38;;;;;;;;;;;;;;;12.23;100.00;99910.56;68063;1275;1016455;-74
2023/12/18 11:09:42;;;;;;;;;;;;;;;12.21;100.00;99910.31;68060;1275;1016451;-74
2023/12/18 11:12:44;;;;;;;;;;;;;;;12.24;100.00;99906.30;68053;1275;1016451;-73
2023/12/18 11:15:47;;;;;;;;;;;;;;;12.48;100.00;99896.48;68017;1275;1019131;-75
2023/12/18 11:18:50;;;;;;;;;;;;;;;12.53;100.00;99893.91;68011;1275;1016427;-74
2023/12/18 11:21:52;;;;;;;;;;;;;;;12.66;100.00;99887.45;68062;1275;1016423;-75
2023/12/18 11:25:05;;;;;;;;;;;;;;;;;;;;;
2023/12/18 11:28:18;;;;;;;;;;;;;;;12.71;100.00;99878.05;67987;1275;1016294;-75
2023/12/18 11:31:24;;;;;;;;;;;;;;;12.72;100.00;99886.44;68048;1275;1020335;-74
2023/12/18 11:34:27;;;;;;;;;;;;;;;12.76;100.00;99879.92;68055;1275;1015991;-75
2023/12/18 11:37:30;;;;;;;;;;;;;;;12.74;100.00;99880.89;68026;1275;1016403;-74
2023/12/18 11:40:32;;;;;;;;;;;;;;;12.66;100.00;99879.05;68040;1275;1016325;-74
2023/12/18 11:43:35;;;;;;;;;;;;;;;12.64;100.00;99876.14;68063;1275;1017254;-74
2023/12/18 11:46:38;;;;;;;;;;;;;;;12.73;100.00;99886.59;68045;1275;1016415;-74
2023/12/18 11:49:40;;;;;;;;;;;;;;;12.81;100.00;99878.42;68058;1275;1016358;-74
2023/12/18 11:52:43;;;;;;;;;;;;;;;12.93;100.00;99883.23;68066;1275;1016465;-74
2023/12/18 11:55:45;;;;;;;;;;;;;;;12.80;100.00;99872.48;67982;1275;1016249;-74
2023/12/18 11:58:48;;;;;;;;;;;;;;;12.77;100.00;99874.41;67981;1275;1016476;-75
2023/12/18 12:01:51;;;;;;;;;;;;;;;12.84;100.00;99862.09;68056;1275;1016316;-74
2023/12/18 12:04:53;;;;;;;;;;;;;;;12.64;100.00;99852.12;68039;1275;1016745;-75
2023/12/18 12:07:56;;;;;;;;;;;;;;;12.71;100.00;99838.08;68001;1275;1016306;-74
2023/12/18 12:10:58;;;;;;;;;;;;;;;12.63;100.00;99837.63;67979;1275;1017147;-74
2023/12/18 12:14:01;;;;;;;;;;;;;;;12.50;100.00;99852.84;68036;1275;1016551;-75
2023/12/18 12:17:04;;;;;;;;;;;;;;;12.63;100.00;99855.64;67999;1275;1016510;-74
2023/12/18 12:20:06;;;;;;;;;;;;;;;12.73;100.00;99854.08;68002;1275;1015884;-74
2023/12/18 12:23:12;;;;;;;;;;;;;;;12.78;100.00;99859.81;68047;1275;1016419;-74
2023/12/18 12:26:14;;;;;;;;;;;;;;;12.76;100.00;99860.12;67993;1275;1016368;-76
2023/12/18 12:29:17;;;;;;;;;;;;;;;12.85;100.00;99859.98;68026;1275;1016134;-74
2023/12/18 12:32:20;;;;;;;;;;;;;;;12.90;100.00;99876.02;68042;1275;1016093;-74
2023/12/18 12:35:22;;;;;;;;;;;;;;;12.89;100.00;99879.04;67965;1275;1016240;-74
2023/12/18 12:38:25;;;;;;;;;;;;;;;12.73;100.00;99875.36;68046;1275;1016262;-74
2023/12/18 12:41:28;;;;;;;;;;;;;;;12.67;100.00;99887.75;68012;1275;1016451;-74
2023/12/18 12:44:30;;;;;;;;;;;;;;;12.56;100.00;99896.43;68030;1275;1016454;-74
2023/12/18 12:47:33;;;;;;;;;;;;;;;12.66;100.00;99886.07;67973;1275;1016507;-74
2023/12/18 12:50:36;;;;;;;;;;;;;;;12.60;100.00;99880.05;68021;1275;1016281;-74
2023/12/18 12:53:39;;;;;;;;;;;;;;;12.56;100.00;99869.77;67987;1275;1017046;-74
2023/12/18 12:56:45;;;;;;;;;;;;;;;12.66;100.00;99865.03;68021;1275;1016416;-74
2023/12/18 12:59:50;;;;;;;;;;;;;;;12.59;100.00;99865.38;67994;1275;1016383;-74
2023/12/18 13:02:54;;;;;;;;;;;;;;;12.34;100.00;99862.27;68033;1275;1016297;-75
2023/12/18 13:05:58;;;;;;;;;;;;;;;12.13;100.00;99868.46;67974;1275;1017190;-75
2023/12/18 13:09:03;;;;;;;;;;;;;;;11.96;100.00;99873.50;67986;1275;1016388;-75
2023/12/18 13:12:05;;;;;;;;;;;;;;;11.89;100.00;99873.83;67961;1275;1015839;-74
2023/12/18 13:15:08;;;;;;;;;;;;;;;11.90;100.00;99873.58;68007;1275;1015737;-75
2023/12/18 13:18:11;;;;;;;;;;;;;;;12.03;100.00;99864.21;68012;1275;1016439;-74
2023/12/18 13:21:15;;;;;;;;;;;;;;;11.90;100.00;99866.08;67998;1275;1016435;-75
2023/12/18 13:24:20;;;;;;;;;;;;;;;11.76;100.00;99878.13;67997;1275;1016406;-73
2023/12/18 13:27:23;;;;;;;;;;;;;;;11.59;100.00;99891.40;67994;1275;1016367;-74
2023/12/18 13:30:26;;;;;;;;;;;;;;;11.50;100.00;99909.17;68019;1275;1016490;-74
2023/12/18 13:33:29;;;;;;;;;;;;;;;11.36;100.00;99908.60;68018;1275;1016525;-75
2023/12/18 13:36:32;;;;;;;;;;;;;;;11.40;100.00;99903.86;68057;1275;1016468;-74
2023/12/18 13:39:36;;;;;;;;;;;;;;;11.39;100.00;99897.24;68025;1275;1019990;-73
2023/12/18 13:42:39;;;;;;;;;;;;;;;11.39;100.00;99891.81;68000;1275;1017136;-74
2023/12/18 13:45:41;;;;;;;;;;;;;;;11.30;100.00;99910.79;67958;1275;1016328;-75
2023/12/18 13:48:44;;;;;;;;;;;;;;;11.32;100.00;99902.66;68034;1275;1016457;-74
2023/12/18 13:51:46;;;;;;;;;;;;;;;11.44;100.00;99909.44;68038;1275;1016539;-74
2023/12/18 13:54:50;;;;;;;;;;;;;;;11.42;100.00;99906.01;67973;1275;1015715;-74
2023/12/18 13:57:53;;;;;;;;;;;;;;;11.29;100.00;99912.62;68021;1275;1016498;-74
2023/12/18 14:00:55;;;;;;;;;;;;;;;11.36;100.00;99900.89;68004;1275;1016647;-74
2023/12/18 14:03:58;;;;;;;;;;;;;;;11.32;100.00;99891.79;68036;1275;1016016;-75
2023/12/18 14:07:00;;;;;;;;;;;;;;;11.31;100.00;99885.70;68045;1275;1016223;-74
2023/12/18 14:10:03;;;;;;;;;;;;;;;11.30;100.00;99881.20;68020;1275;1016438;-75
2023/12/18 14:13:06;;;;;;;;;;;;;;;11.25;100.00;99886.14;68004;1275;1015871;-75
2023/12/18 14:16:08;;;;;;;;;;;;;;;11.41;100.00;99896.27;68008;1275;1016479;-74
2023/12/18 14:19:11;;;;;;;;;;;;;;;11.55;100.00;99892.64;68056;1275;1016414;-75
2023/12/18 14:22:13;;;;;;;;;;;;;;;11.48;100.00;99897.36;68038;1275;1016427;-74
2023/12/18 14:25:16;;;;;;;;;;;;;;;11.49;100.00;99898.16;68040;1275;1016574;-74
2023/12/18 14:28:18;;;;;;;;;;;;;;;11.47;100.00;99890.77;68056;1275;1016480;-75
2023/12/18 14:31:21;;;;;;;;;;;;;;;11.33;100.00;99897.88;68008;1275;1016472;-74
2023/12/18 14:34:24;;;;;;;;;;;;;;;11.55;100.00;99900.87;67967;1275;1016121;-75
2023/12/18 14:37:26;;;;;;;;;;;;;;;11.60;100.00;99901.31;68066;1275;1016489;-74
2023/12/18 14:40:29;;;;;;;;;;;;;;;11.67;100.00;99900.99;68044;1275;1016143;-75
2023/12/18 14:43:33;;;;;;;;;;;;;;;11.71;100.00;99909.92;68019;1275;1016088;-74
2023/12/18 14:46:36;;;;;;;;;;;;;;;11.41;100.00;99917.27;68014;1275;1015873;-75
2023/12/18 14:49:38;;;;;;;;;;;;;;;11.42;100.00;99912.16;68028;1275;1016389;-75
2023/12/18 14:52:41;;;;;;;;;;;;;;;11.15;100.00;99916.73;68042;1275;1016423;-74
2023/12/18 14:55:43;;;;;;;;;;;;;;;11.13;100.00;99919.10;68029;1275;1016345;-75
2023/12/18 14:58:46;;;;;;;;;;;;;;;11.12;100.00;99911.95;68005;1275;1015798;-75
2023/12/18 15:01:49;;;;;;;;;;;;;;;11.31;100.00;99918.62;68057;1275;1017863;-75
2023/12/18 15:04:51;;;;;;;;;;;;;;;11.44;100.00;99922.75;68056;1275;1019526;-75
2023/12/18 15:07:54;;;;;;;;;;;;;;;11.40;100.00;99919.08;67981;1275;1016572;-74
2023/12/18 15:10:59;;;;;;;;;;;;;;;11.51;100.00;99910.86;68048;1275;1016887;-75
2023/12/18 15:14:02;;;;;;;;;;;;;;;11.44;100.00;99919.06;67993;1275;1016628;-75
2023/12/18 15:17:04;;;;;;;;;;;;;;;11.45;100.00;99920.77;68025;1275;1016150;-74
2023/12/18 15:23:42;;;;;;;;;;;;;;;11.38;100.00;99914.27;67580;1282;1016438;-75